Albury
Weather
Information

and Archive.
Albury Local Internet Skycam This service provided and funded by Albury Local Internet

Help keep our weatherstation running:

Lavington Weatherstation live data - Conditions of Use

Last updated on 20-Nov-2019 at 22:45:04
Temperature
  Currently 25.1 degrees C
  Apparent Temperature ("Wind Chill") is 22.3 degrees C
  Today has ranged from 11.6 at 04:42 to 35.2 at 16:48
  Yesterday ranged from 12.1 at 05:54 to 32.8 at 15:40
Wind
  Now:    5.8kmh, gusting to   6.5kmh from 40 degrees ( NE)
  Hour:   7.5kmh, gusting to  13.3kmh
Rainfall
   0.0mm Midnight to Midnight (ie, yesterday)
   0.0mm Since Midnight (ie, so far today)
   0.0mm 9am yesterday to 9am today
  20.6mm Total this month
Misc items
  Relative humidity is 22%
  Dewpoint is 1.9 deg C
  Estimated Cloudbase is 9500 feet
  Barometric Pressure is 1013.0 mbar
  Solar Insolation: 0 W/m^2
  UV Index: 0.0 (Low)
Top Solar flares in the last 24 hours

Last 24 hours Temperature Graph (click graph for history)
temperature

Last 24 hours Dynamic Wind display (click image for 4-hour image):
Wind Rose

Current Yarrawonga Weather Radar and Infrared Satellite Images from the BOM.

Hourly summaries in the tables below are cumulative and peak values
for the preceding hour, and instantaneous values at the hour.
So far today, 20-Nov-2019
Time   Barom.  Wind + Gust    Direction   RH   Rain    Temp.  Minimum    Maximum
01:00  1013.0   1.4   7.9kmh   83 ( E )   34%  0.0mm   17.9  17.7@00:54 19.8@00:43
02:00  1013.0   3.0  10.8kmh   92 ( E )   44%  0.0mm   15.0  14.8@01:56 18.5@01:02
03:00  1013.0   2.3   7.2kmh   92 ( E )   51%  0.0mm   13.1  13.1@02:54 16.3@02:09
04:00  1013.0   2.6   7.9kmh   98 ( E )   46%  0.0mm   14.5  11.9@03:16 14.8@03:47
05:00  1013.0   1.8   9.4kmh   97 ( E )   53%  0.0mm   12.7  11.6@04:42 14.5@04:00
06:00  1013.0   5.3   9.4kmh  109 (ESE)   62%  0.0mm   12.9  12.2@05:40 13.8@05:08
07:00  1014.0   7.1  15.5kmh   73 (ENE)   67%  0.0mm   13.6  12.7@06:05 13.6@06:48
08:00  1014.0   5.2  13.3kmh  123 (ESE)   54%  0.0mm   17.8  13.6@07:00 17.7@07:59
09:00  1015.0   7.1  14.0kmh  101 ( E )   47%  0.0mm   21.0  17.7@08:12 21.1@08:56
10:00  1015.0   8.1  16.9kmh   19 (NNE)   30%  0.0mm   26.2  20.6@09:03 26.3@09:58
11:00  1014.0   8.6  18.0kmh    0 ( N )   23%  0.0mm   29.3  24.3@10:04 29.2@10:40
12:00  1014.0   8.0  19.4kmh   20 (NNE)   15%  0.0mm   32.7  29.3@11:00 32.6@11:37
13:00  1014.0   7.9  18.7kmh   88 ( E )   14%  0.0mm   31.8  29.2@12:49 34.1@12:19
14:00  1014.0   7.4  15.5kmh  170 ( S )   14%  0.0mm   32.4  30.2@13:08 34.0@13:20
15:00  1013.0   8.3  15.5kmh  144 ( SE)   12%  0.0mm   33.9  31.3@14:26 34.6@14:32
16:00  1013.0   8.5  17.6kmh  128 ( SE)   12%  0.0mm   34.0  32.0@15:53 34.8@15:07
17:00  1012.0   8.9  19.4kmh   93 ( E )   13%  0.0mm   32.8  32.5@16:08 35.2@16:48
18:00  1012.0   9.3  19.4kmh   72 (ENE)   13%  0.0mm   33.5  32.8@17:00 34.3@17:39
19:00  1012.0   8.5  16.9kmh   89 ( E )   13%  0.0mm   32.8  32.6@18:40 33.8@18:06
20:00  1012.0   5.1  12.6kmh   35 ( NE)   18%  0.0mm   26.5  26.6@19:59 32.8@19:00
21:00  1012.0   6.2  10.8kmh   64 (ENE)   18%  0.0mm   26.5  26.0@20:39 26.6@20:03
22:00  1013.0  11.1  16.2kmh   28 (NNE)   18%  0.0mm   26.8  26.5@21:00 28.0@21:16
22:45  1013.0   7.5  13.3kmh   22 (NNE)   22%  0.0mm   25.1  25.0@22:44 26.9@22:01


Summary for yesterday, 19-Nov-2019
Time   Barom.  Wind + Gust    Direction   RH   Rain    Temp.  Minimum    Maximum
01:00  1013.0   3.3  11.9kmh  347 (NNW)   30%  0.0mm   19.6  18.2@00:24 20.7@00:11
02:00  1012.0   3.6   8.6kmh  291 (WNW)   44%  0.0mm   16.1  16.1@01:59 19.6@01:00
03:00  1012.0   0.9   6.5kmh  347 (NNW)   54%  0.0mm   14.2  14.2@02:26 16.6@02:33
04:00  1012.0   0.0   0.0kmh  351 ( N )   76%  0.0mm   12.7  12.4@03:44 14.2@03:00
05:00  1011.0   2.0   8.6kmh   23 (NNE)   65%  0.0mm   12.7  12.3@04:11 13.7@04:37
06:00  1012.0   1.2   7.9kmh   20 (NNE)   69%  0.0mm   12.7  12.1@05:54 13.3@05:11
07:00  1012.0   0.8   7.2kmh   24 (NNE)   71%  0.0mm   13.4  12.4@06:35 13.6@06:05
08:00  1013.0   4.1   9.4kmh  118 (ESE)   60%  0.0mm   15.5  13.4@07:00 15.6@07:58
09:00  1013.0   5.2  11.2kmh  138 ( SE)   49%  0.0mm   19.7  15.5@08:00 20.1@08:56
10:00  1012.0   6.7  12.6kmh   17 (NNE)   51%  0.0mm   24.6  19.4@09:01 24.6@09:59
11:00  1012.0   6.2  15.5kmh  147 (SSE)   25%  0.0mm   27.0  24.6@10:00 27.5@10:45
12:00  1012.0   8.1  17.6kmh  187 ( S )   19%  0.0mm   28.3  26.8@11:01 29.1@11:42
13:00  1011.0  13.3  29.9kmh  271 ( W )   17%  0.0mm   30.5  28.3@12:00 31.5@12:53
14:00  1011.0  13.1  28.4kmh  201 (SSW)   16%  0.0mm   30.3  29.2@13:06 31.6@13:33
15:00  1010.0  13.4  29.2kmh  209 (SSW)   16%  0.0mm   31.9  30.3@14:00 32.3@14:53
16:00  1010.0  15.4  32.4kmh  193 (SSW)   16%  0.0mm   31.5  30.9@15:06 32.8@15:40
17:00  1010.0  16.3  31.3kmh  135 ( SE)   18%  0.0mm   31.6  30.8@16:56 32.2@16:39
18:00  1010.0  18.5  33.1kmh  205 (SSW)   19%  0.0mm   29.9  29.6@17:55 31.9@17:01
19:00  1011.0  16.2  31.3kmh  138 ( SE)   21%  0.0mm   28.6  28.4@18:25 30.3@18:03
20:00  1011.0  12.7  24.5kmh  174 ( S )   22%  0.0mm   26.5  26.4@19:58 28.6@19:00
21:00  1012.0   8.4  18.0kmh  157 (SSE)   26%  0.0mm   24.4  24.4@20:57 26.5@20:00
22:00  1013.0   4.4  13.3kmh  180 ( S )   29%  0.0mm   21.1  21.0@21:52 24.4@21:00
23:00  1013.0   1.7   9.4kmh   82 ( E )   29%  0.0mm   19.6  19.6@22:57 21.1@22:00
00:00  1013.0   0.5   6.5kmh   82 ( E )   31%  0.0mm   18.8  18.4@23:39 20.2@23:18